Abbotsford Airport
CYXX : now visible

Airfield :











YOU CAN JOIN US ON...

 
LOGIN :

Register | Disclaimer

   EN    FR    IT 

 









Legend :    VFR   Marginal VFR   IFR   Intensive IFR   Very Intensive IFR
Visi :
Ceiling :
>= 8 km
>= 3000ft
5 to 8 km
1000 to 3000 ft
1500m to 5 km
500 to 1000 ft
800 to 1500m
200 to 500 ft
< 800m
< 200 ft
Symbols :   Thunderstorms  Fog  Heavy snow  Heavy precipitations  Wind > 20 kt






- Airport Elevation : 195 ft
- IATA code : YXX


CYXX - Abbotsford

CURRENT METAR :
  • 072000Z 23009KT 190V270 25SM FEW035 SCT043 12/02 A3024 RMK CU1CU3 SLP242

EXPIRED METARs :
  • 071900Z 17006KT 150V240 25SM BKN037 11/03 A3023 RMK CU5 SLP240
  • 071800Z 21008KT 20SM BKN032 09/03 A3023 RMK CU6 SLP239

TAF TAF CYXX
Valid from the 07 at 18:00 until the 08 at 18:00 UTC


071742Z 0718/0818 22010KT P6SM SCT030
TEMPO 0718/0720 BKN030
BECMG 0803/0805 VRB03KT RMK NXT FCST BY 080000Z



MET'MAP, your aeronautical weather chart ! - Copyright ORBIFLY December 2007 - Disclaimer

ORBIFLY MET'MAP TEAM :

Programming & Development : Alexandra Zaïnal
Concept & original design : Baudouin d'Aumeries
Assistance for programming : Marc-Olivier Méhu
Technical & hardware support : Manuel Goepfert

Contact : metmap@orbifly.com




SOURCES & CREDITS :

   NOAA       Earth
Advisory